Viewfield, South Dakota
Current Conditions -  °F | °C
As of 12:52 AM on Thursday 23 Oct 2014 (Local Time) from KRAP Reporting Station
Clear Clear  
Wind Chill: 33°   Ceiling: Unl
Heat Index: 38°   Visibility: 10mi
Dew Point: 32°   Wind: 7mph
Humidity: 79%   Direction: 280°W
Pressure: 30.02"   Gusts: NA
Location:  43.9974°N, 102.716°W
Report Text: KRAP 230652Z 28006KT 10SM CLR 03/00 A3002 RMK AO2 SLP168 T00330000 401830017
Loading
Personal Weather Stations






























Interactive Weather Map
Tropical Storm Tracking
New forecast layout! Learn more

10-Day Weather Forecast

Advertisements
Track Severe Weather on mobile